sensor_id;sensor_type;location;lat;lon;timestamp;P1;durP1;ratioP1;P2;durP2;ratioP2
68923;SDS011;55961;52.156;20.942;2023-03-01T00:00:21;75.40;;;29.65;;
68923;SDS011;55961;52.156;20.942;2023-03-01T00:03:07;79.65;;;30.95;;
68923;SDS011;55961;52.156;20.942;2023-03-01T00:05:33;83.57;;;31.80;;
68923;SDS011;55961;52.156;20.942;2023-03-01T00:07:59;69.22;;;27.23;;
68923;SDS011;55961;52.156;20.942;2023-03-01T00:10:25;69.00;;;26.80;;
68923;SDS011;55961;52.156;20.942;2023-03-01T00:12:51;80.93;;;30.27;;
68923;SDS011;55961;52.156;20.942;2023-03-01T00:15:17;76.10;;;29.33;;
68923;SDS011;55961;52.156;20.942;2023-03-01T00:17:43;73.43;;;27.55;;
68923;SDS011;55961;52.156;20.942;2023-03-01T00:20:09;62.10;;;24.23;;
68923;SDS011;55961;52.156;20.942;2023-03-01T00:22:36;60.10;;;24.08;;
68923;SDS011;55961;52.156;20.942;2023-03-01T00:25:03;67.77;;;25.30;;
68923;SDS011;55961;52.156;20.942;2023-03-01T00:27:29;61.85;;;25.13;;
68923;SDS011;55961;52.156;20.942;2023-03-01T00:29:55;72.63;;;27.35;;
68923;SDS011;55961;52.156;20.942;2023-03-01T00:32:20;72.32;;;26.83;;
68923;SDS011;55961;52.156;20.942;2023-03-01T00:34:46;70.10;;;26.30;;
68923;SDS011;55961;52.156;20.942;2023-03-01T00:37:22;66.82;;;27.38;;
68923;SDS011;55961;52.156;20.942;2023-03-01T00:39:49;67.57;;;25.98;;
68923;SDS011;55961;52.156;20.942;2023-03-01T00:42:15;63.95;;;26.42;;
68923;SDS011;55961;52.156;20.942;2023-03-01T00:44:42;71.55;;;27.13;;
68923;SDS011;55961;52.156;20.942;2023-03-01T00:47:08;70.50;;;26.30;;
68923;SDS011;55961;52.156;20.942;2023-03-01T00:49:34;61.30;;;25.02;;
68923;SDS011;55961;52.156;20.942;2023-03-01T00:52:00;68.55;;;25.00;;
68923;SDS011;55961;52.156;20.942;2023-03-01T00:54:26;63.97;;;24.77;;
68923;SDS011;55961;52.156;20.942;2023-03-01T00:56:52;56.27;;;22.83;;
68923;SDS011;55961;52.156;20.942;2023-03-01T00:59:18;58.88;;;21.85;;
68923;SDS011;55961;52.156;20.942;2023-03-01T01:01:43;66.60;;;25.55;;
68923;SDS011;55961;52.156;20.942;2023-03-01T01:04:11;64.87;;;23.27;;
68923;SDS011;55961;52.156;20.942;2023-03-01T01:06:42;59.97;;;21.45;;
68923;SDS011;55961;52.156;20.942;2023-03-01T01:09:12;62.05;;;22.98;;
68923;SDS011;55961;52.156;20.942;2023-03-01T01:11:46;61.58;;;24.05;;
68923;SDS011;55961;52.156;20.942;2023-03-01T01:14:14;62.25;;;23.70;;
68923;SDS011;55961;52.156;20.942;2023-03-01T01:16:40;64.03;;;24.97;;
68923;SDS011;55961;52.156;20.942;2023-03-01T01:19:07;56.10;;;21.90;;
68923;SDS011;55961;52.156;20.942;2023-03-01T01:21:33;66.57;;;24.55;;
68923;SDS011;55961;52.156;20.942;2023-03-01T01:23:59;51.53;;;19.92;;
68923;SDS011;55961;52.156;20.942;2023-03-01T01:26:28;58.47;;;23.30;;
68923;SDS011;55961;52.156;20.942;2023-03-01T01:28:56;57.30;;;23.97;;
68923;SDS011;55961;52.156;20.942;2023-03-01T01:31:22;55.03;;;22.30;;
68923;SDS011;55961;52.156;20.942;2023-03-01T01:33:50;57.53;;;21.38;;
68923;SDS011;55961;52.156;20.942;2023-03-01T01:36:16;60.10;;;22.65;;
68923;SDS011;55961;52.156;20.942;2023-03-01T01:38:42;61.03;;;23.88;;
68923;SDS011;55961;52.156;20.942;2023-03-01T01:41:08;56.07;;;21.50;;
68923;SDS011;55961;52.156;20.942;2023-03-01T01:43:38;62.58;;;22.58;;
68923;SDS011;55961;52.156;20.942;2023-03-01T01:46:28;51.50;;;20.77;;
68923;SDS011;55961;52.156;20.942;2023-03-01T01:51:34;56.83;;;22.93;;
68923;SDS011;55961;52.156;20.942;2023-03-01T01:54:10;58.58;;;22.77;;
68923;SDS011;55961;52.156;20.942;2023-03-01T01:56:42;61.08;;;19.95;;
68923;SDS011;55961;52.156;20.942;2023-03-01T01:59:13;56.33;;;21.55;;
68923;SDS011;55961;52.156;20.942;2023-03-01T02:01:39;56.55;;;21.70;;
68923;SDS011;55961;52.156;20.942;2023-03-01T02:04:05;59.37;;;21.17;;
68923;SDS011;55961;52.156;20.942;2023-03-01T02:06:38;60.92;;;21.33;;
68923;SDS011;55961;52.156;20.942;2023-03-01T02:09:13;59.90;;;23.02;;
68923;SDS011;55961;52.156;20.942;2023-03-01T02:11:40;65.10;;;23.92;;
68923;SDS011;55961;52.156;20.942;2023-03-01T02:14:07;60.13;;;24.57;;
68923;SDS011;55961;52.156;20.942;2023-03-01T02:16:33;61.15;;;22.95;;
68923;SDS011;55961;52.156;20.942;2023-03-01T02:18:59;56.40;;;22.40;;
68923;SDS011;55961;52.156;20.942;2023-03-01T02:25:12;64.22;;;23.58;;
68923;SDS011;55961;52.156;20.942;2023-03-01T02:27:05;56.67;;;22.30;;
68923;SDS011;55961;52.156;20.942;2023-03-01T02:29:31;52.97;;;21.60;;
68923;SDS011;55961;52.156;20.942;2023-03-01T02:31:58;85.05;;;22.92;;
68923;SDS011;55961;52.156;20.942;2023-03-01T02:34:27;61.72;;;23.35;;
68923;SDS011;55961;52.156;20.942;2023-03-01T02:37:01;54.97;;;22.58;;
68923;SDS011;55961;52.156;20.942;2023-03-01T02:39:36;58.10;;;21.63;;
68923;SDS011;55961;52.156;20.942;2023-03-01T02:42:07;60.38;;;21.75;;
68923;SDS011;55961;52.156;20.942;2023-03-01T02:44:39;58.08;;;21.67;;
68923;SDS011;55961;52.156;20.942;2023-03-01T02:47:05;61.67;;;22.03;;
68923;SDS011;55961;52.156;20.942;2023-03-01T02:49:33;60.50;;;21.97;;
68923;SDS011;55961;52.156;20.942;2023-03-01T02:54:34;61.30;;;22.75;;
68923;SDS011;55961;52.156;20.942;2023-03-01T02:57:06;60.08;;;23.25;;
68923;SDS011;55961;52.156;20.942;2023-03-01T02:59:34;59.72;;;23.02;;
68923;SDS011;55961;52.156;20.942;2023-03-01T03:02:05;59.43;;;22.47;;
68923;SDS011;55961;52.156;20.942;2023-03-01T03:04:32;57.42;;;23.30;;
68923;SDS011;55961;52.156;20.942;2023-03-01T03:06:58;57.17;;;22.15;;
68923;SDS011;55961;52.156;20.942;2023-03-01T03:09:24;66.10;;;23.17;;
68923;SDS011;55961;52.156;20.942;2023-03-01T03:11:50;58.87;;;21.63;;
68923;SDS011;55961;52.156;20.942;2023-03-01T03:14:16;59.25;;;21.27;;
68923;SDS011;55961;52.156;20.942;2023-03-01T03:16:43;56.75;;;21.77;;
68923;SDS011;55961;52.156;20.942;2023-03-01T03:19:11;60.22;;;23.15;;
68923;SDS011;55961;52.156;20.942;2023-03-01T03:21:37;59.23;;;21.20;;
68923;SDS011;55961;52.156;20.942;2023-03-01T03:24:04;59.60;;;22.55;;
68923;SDS011;55961;52.156;20.942;2023-03-01T03:26:30;53.83;;;22.30;;
68923;SDS011;55961;52.156;20.942;2023-03-01T03:28:57;50.97;;;21.45;;
68923;SDS011;55961;52.156;20.942;2023-03-01T03:31:23;55.83;;;22.08;;
68923;SDS011;55961;52.156;20.942;2023-03-01T03:33:49;60.10;;;22.93;;
68923;SDS011;55961;52.156;20.942;2023-03-01T03:36:15;59.40;;;21.35;;
68923;SDS011;55961;52.156;20.942;2023-03-01T03:38:45;50.80;;;20.60;;
68923;SDS011;55961;52.156;20.942;2023-03-01T03:41:11;53.15;;;21.15;;
68923;SDS011;55961;52.156;20.942;2023-03-01T03:43:38;49.83;;;18.93;;
68923;SDS011;55961;52.156;20.942;2023-03-01T03:46:05;51.53;;;17.25;;
68923;SDS011;55961;52.156;20.942;2023-03-01T03:48:36;46.97;;;18.33;;
68923;SDS011;55961;52.156;20.942;2023-03-01T03:51:10;41.38;;;14.82;;
68923;SDS011;55961;52.156;20.942;2023-03-01T03:53:38;51.92;;;18.60;;
68923;SDS011;55961;52.156;20.942;2023-03-01T03:56:04;52.17;;;19.37;;
68923;SDS011;55961;52.156;20.942;2023-03-01T03:58:30;57.65;;;21.63;;
68923;SDS011;55961;52.156;20.942;2023-03-01T04:00:57;38.85;;;16.92;;
68923;SDS011;55961;52.156;20.942;2023-03-01T04:03:24;56.28;;;22.52;;
68923;SDS011;55961;52.156;20.942;2023-03-01T04:05:51;46.72;;;17.70;;
68923;SDS011;55961;52.156;20.942;2023-03-01T04:08:18;51.07;;;19.27;;
68923;SDS011;55961;52.156;20.942;2023-03-01T04:10:47;57.15;;;20.60;;
68923;SDS011;55961;52.156;20.942;2023-03-01T04:13:15;58.53;;;21.70;;
68923;SDS011;55961;52.156;20.942;2023-03-01T04:15:45;57.55;;;22.30;;
68923;SDS011;55961;52.156;20.942;2023-03-01T04:18:15;55.58;;;21.38;;
68923;SDS011;55961;52.156;20.942;2023-03-01T04:20:43;52.67;;;18.37;;
68923;SDS011;55961;52.156;20.942;2023-03-01T04:23:14;52.30;;;19.65;;
68923;SDS011;55961;52.156;20.942;2023-03-01T04:25:52;61.42;;;23.52;;
68923;SDS011;55961;52.156;20.942;2023-03-01T04:28:24;61.03;;;21.15;;
68923;SDS011;55961;52.156;20.942;2023-03-01T04:30:54;54.80;;;20.50;;
68923;SDS011;55961;52.156;20.942;2023-03-01T04:33:21;46.90;;;19.23;;
68923;SDS011;55961;52.156;20.942;2023-03-01T04:35:48;36.05;;;14.00;;
68923;SDS011;55961;52.156;20.942;2023-03-01T04:38:15;63.78;;;22.27;;
68923;SDS011;55961;52.156;20.942;2023-03-01T04:40:41;54.92;;;20.63;;
68923;SDS011;55961;52.156;20.942;2023-03-01T04:43:09;59.83;;;21.52;;
68923;SDS011;55961;52.156;20.942;2023-03-01T04:45:36;47.63;;;17.37;;
68923;SDS011;55961;52.156;20.942;2023-03-01T04:48:02;54.80;;;22.13;;
68923;SDS011;55961;52.156;20.942;2023-03-01T04:50:29;55.25;;;20.27;;
68923;SDS011;55961;52.156;20.942;2023-03-01T04:52:55;50.80;;;20.20;;
68923;SDS011;55961;52.156;20.942;2023-03-01T04:55:27;53.88;;;21.55;;
68923;SDS011;55961;52.156;20.942;2023-03-01T04:57:53;50.87;;;17.47;;
68923;SDS011;55961;52.156;20.942;2023-03-01T05:00:19;54.47;;;20.33;;
68923;SDS011;55961;52.156;20.942;2023-03-01T05:02:50;35.13;;;13.15;;
68923;SDS011;55961;52.156;20.942;2023-03-01T05:05:19;40.03;;;15.65;;
68923;SDS011;55961;52.156;20.942;2023-03-01T05:07:54;41.55;;;14.38;;
68923;SDS011;55961;52.156;20.942;2023-03-01T05:10:22;33.10;;;12.90;;
68923;SDS011;55961;52.156;20.942;2023-03-01T05:12:49;47.58;;;17.50;;
68923;SDS011;55961;52.156;20.942;2023-03-01T05:15:14;35.35;;;13.18;;
68923;SDS011;55961;52.156;20.942;2023-03-01T05:17:41;42.85;;;14.07;;
68923;SDS011;55961;52.156;20.942;2023-03-01T05:20:07;47.23;;;17.80;;
68923;SDS011;55961;52.156;20.942;2023-03-01T05:22:36;52.47;;;18.30;;
68923;SDS011;55961;52.156;20.942;2023-03-01T05:25:03;32.83;;;12.70;;
68923;SDS011;55961;52.156;20.942;2023-03-01T05:27:29;35.58;;;12.15;;
68923;SDS011;55961;52.156;20.942;2023-03-01T05:29:56;55.53;;;20.15;;
68923;SDS011;55961;52.156;20.942;2023-03-01T05:32:22;52.73;;;19.03;;
68923;SDS011;55961;52.156;20.942;2023-03-01T05:34:48;53.50;;;21.52;;
68923;SDS011;55961;52.156;20.942;2023-03-01T05:37:14;50.50;;;19.40;;
68923;SDS011;55961;52.156;20.942;2023-03-01T05:39:39;51.63;;;18.73;;
68923;SDS011;55961;52.156;20.942;2023-03-01T05:42:09;33.92;;;15.18;;
68923;SDS011;55961;52.156;20.942;2023-03-01T05:44:36;56.63;;;19.85;;
68923;SDS011;55961;52.156;20.942;2023-03-01T05:47:02;50.17;;;18.52;;
68923;SDS011;55961;52.156;20.942;2023-03-01T05:49:28;54.33;;;19.13;;
68923;SDS011;55961;52.156;20.942;2023-03-01T05:51:55;52.75;;;20.00;;
68923;SDS011;55961;52.156;20.942;2023-03-01T05:54:21;51.20;;;19.55;;
68923;SDS011;55961;52.156;20.942;2023-03-01T05:56:47;55.23;;;19.40;;
68923;SDS011;55961;52.156;20.942;2023-03-01T05:59:13;42.75;;;17.42;;
68923;SDS011;55961;52.156;20.942;2023-03-01T06:01:40;48.05;;;19.30;;
68923;SDS011;55961;52.156;20.942;2023-03-01T06:04:06;47.53;;;19.23;;
68923;SDS011;55961;52.156;20.942;2023-03-01T06:06:36;48.73;;;19.70;;
68923;SDS011;55961;52.156;20.942;2023-03-01T06:09:05;53.00;;;21.15;;
68923;SDS011;55961;52.156;20.942;2023-03-01T06:11:35;53.83;;;18.52;;
68923;SDS011;55961;52.156;20.942;2023-03-01T06:14:02;51.80;;;20.15;;
68923;SDS011;55961;52.156;20.942;2023-03-01T06:16:28;46.88;;;19.38;;
68923;SDS011;55961;52.156;20.942;2023-03-01T06:18:54;46.33;;;16.47;;
68923;SDS011;55961;52.156;20.942;2023-03-01T06:21:20;54.30;;;20.77;;
68923;SDS011;55961;52.156;20.942;2023-03-01T06:23:46;51.43;;;17.47;;
68923;SDS011;55961;52.156;20.942;2023-03-01T06:26:12;44.47;;;16.67;;
68923;SDS011;55961;52.156;20.942;2023-03-01T06:28:38;49.28;;;20.45;;
68923;SDS011;55961;52.156;20.942;2023-03-01T06:31:04;50.45;;;20.23;;
68923;SDS011;55961;52.156;20.942;2023-03-01T06:33:33;34.63;;;11.67;;
68923;SDS011;55961;52.156;20.942;2023-03-01T06:35:59;41.17;;;16.25;;
68923;SDS011;55961;52.156;20.942;2023-03-01T06:38:25;47.95;;;19.30;;
68923;SDS011;55961;52.156;20.942;2023-03-01T06:40:52;48.80;;;19.42;;
68923;SDS011;55961;52.156;20.942;2023-03-01T06:43:19;50.77;;;20.17;;
68923;SDS011;55961;52.156;20.942;2023-03-01T06:45:45;53.58;;;19.48;;
68923;SDS011;55961;52.156;20.942;2023-03-01T06:48:11;32.60;;;12.20;;
68923;SDS011;55961;52.156;20.942;2023-03-01T06:50:37;48.03;;;17.97;;
68923;SDS011;55961;52.156;20.942;2023-03-01T06:53:03;44.95;;;18.17;;
68923;SDS011;55961;52.156;20.942;2023-03-01T06:55:30;25.35;;;10.85;;
68923;SDS011;55961;52.156;20.942;2023-03-01T06:57:57;35.97;;;14.68;;
68923;SDS011;55961;52.156;20.942;2023-03-01T07:00:24;47.57;;;18.50;;
68923;SDS011;55961;52.156;20.942;2023-03-01T07:02:51;45.60;;;18.05;;
68923;SDS011;55961;52.156;20.942;2023-03-01T07:05:17;48.55;;;18.70;;
68923;SDS011;55961;52.156;20.942;2023-03-01T07:07:43;40.27;;;15.73;;
68923;SDS011;55961;52.156;20.942;2023-03-01T07:10:10;47.63;;;16.63;;
68923;SDS011;55961;52.156;20.942;2023-03-01T07:12:36;39.38;;;16.13;;
68923;SDS011;55961;52.156;20.942;2023-03-01T07:15:02;43.28;;;16.63;;
68923;SDS011;55961;52.156;20.942;2023-03-01T07:17:28;46.92;;;18.98;;
68923;SDS011;55961;52.156;20.942;2023-03-01T07:19:54;48.55;;;19.45;;
68923;SDS011;55961;52.156;20.942;2023-03-01T07:22:21;50.97;;;19.87;;
68923;SDS011;55961;52.156;20.942;2023-03-01T07:24:47;37.05;;;15.45;;
68923;SDS011;55961;52.156;20.942;2023-03-01T07:27:13;45.25;;;19.23;;
68923;SDS011;55961;52.156;20.942;2023-03-01T07:29:39;46.17;;;18.50;;
68923;SDS011;55961;52.156;20.942;2023-03-01T07:32:05;50.60;;;21.55;;
68923;SDS011;55961;52.156;20.942;2023-03-01T07:34:32;45.78;;;18.60;;
68923;SDS011;55961;52.156;20.942;2023-03-01T07:36:57;42.33;;;16.30;;
68923;SDS011;55961;52.156;20.942;2023-03-01T07:39:23;37.13;;;16.23;;
68923;SDS011;55961;52.156;20.942;2023-03-01T07:41:49;30.92;;;12.43;;
68923;SDS011;55961;52.156;20.942;2023-03-01T07:44:16;46.03;;;18.98;;
68923;SDS011;55961;52.156;20.942;2023-03-01T07:46:42;42.88;;;16.33;;
68923;SDS011;55961;52.156;20.942;2023-03-01T07:49:09;44.03;;;17.80;;
68923;SDS011;55961;52.156;20.942;2023-03-01T07:51:35;41.17;;;16.75;;
68923;SDS011;55961;52.156;20.942;2023-03-01T07:54:01;39.67;;;16.85;;
68923;SDS011;55961;52.156;20.942;2023-03-01T07:56:27;33.35;;;15.10;;
68923;SDS011;55961;52.156;20.942;2023-03-01T07:58:53;40.53;;;16.75;;
68923;SDS011;55961;52.156;20.942;2023-03-01T08:01:19;36.57;;;15.07;;
68923;SDS011;55961;52.156;20.942;2023-03-01T08:03:46;29.45;;;11.85;;
68923;SDS011;55961;52.156;20.942;2023-03-01T08:06:13;43.20;;;15.10;;
68923;SDS011;55961;52.156;20.942;2023-03-01T08:08:40;42.27;;;18.27;;
68923;SDS011;55961;52.156;20.942;2023-03-01T08:11:07;44.53;;;18.25;;
68923;SDS011;55961;52.156;20.942;2023-03-01T08:13:35;37.25;;;15.18;;
68923;SDS011;55961;52.156;20.942;2023-03-01T08:16:02;43.97;;;18.40;;
68923;SDS011;55961;52.156;20.942;2023-03-01T08:18:30;39.20;;;16.27;;
68923;SDS011;55961;52.156;20.942;2023-03-01T08:20:56;40.45;;;17.67;;
68923;SDS011;55961;52.156;20.942;2023-03-01T08:23:26;39.13;;;16.13;;
68923;SDS011;55961;52.156;20.942;2023-03-01T08:25:52;40.27;;;18.30;;
68923;SDS011;55961;52.156;20.942;2023-03-01T08:28:18;37.73;;;15.23;;
68923;SDS011;55961;52.156;20.942;2023-03-01T08:30:44;40.60;;;16.58;;
68923;SDS011;55961;52.156;20.942;2023-03-01T08:33:10;35.25;;;14.45;;
68923;SDS011;55961;52.156;20.942;2023-03-01T08:35:35;34.37;;;13.03;;
68923;SDS011;55961;52.156;20.942;2023-03-01T08:38:01;42.03;;;16.10;;
68923;SDS011;55961;52.156;20.942;2023-03-01T08:40:28;34.97;;;14.20;;
68923;SDS011;55961;52.156;20.942;2023-03-01T08:42:54;39.92;;;16.17;;
68923;SDS011;55961;52.156;20.942;2023-03-01T08:45:19;39.83;;;15.10;;
68923;SDS011;55961;52.156;20.942;2023-03-01T08:47:45;32.97;;;14.05;;
68923;SDS011;55961;52.156;20.942;2023-03-01T08:50:11;40.60;;;15.65;;
68923;SDS011;55961;52.156;20.942;2023-03-01T08:52:37;33.03;;;14.30;;
68923;SDS011;55961;52.156;20.942;2023-03-01T08:55:03;36.03;;;15.90;;
68923;SDS011;55961;52.156;20.942;2023-03-01T08:57:30;33.50;;;15.20;;
68923;SDS011;55961;52.156;20.942;2023-03-01T08:59:55;36.13;;;15.37;;
68923;SDS011;55961;52.156;20.942;2023-03-01T09:02:22;35.08;;;15.38;;
68923;SDS011;55961;52.156;20.942;2023-03-01T09:04:47;32.95;;;14.48;;
68923;SDS011;55961;52.156;20.942;2023-03-01T09:07:13;30.98;;;14.52;;
68923;SDS011;55961;52.156;20.942;2023-03-01T09:09:39;35.97;;;14.23;;
68923;SDS011;55961;52.156;20.942;2023-03-01T09:12:05;32.55;;;13.52;;
68923;SDS011;55961;52.156;20.942;2023-03-01T09:14:31;29.52;;;12.85;;
68923;SDS011;55961;52.156;20.942;2023-03-01T09:16:58;26.52;;;10.07;;
68923;SDS011;55961;52.156;20.942;2023-03-01T09:19:28;30.20;;;12.57;;
68923;SDS011;55961;52.156;20.942;2023-03-01T09:21:54;22.73;;;10.25;;
68923;SDS011;55961;52.156;20.942;2023-03-01T09:24:21;29.00;;;12.35;;
68923;SDS011;55961;52.156;20.942;2023-03-01T09:26:49;38.00;;;13.38;;
68923;SDS011;55961;52.156;20.942;2023-03-01T09:29:18;28.08;;;12.73;;
68923;SDS011;55961;52.156;20.942;2023-03-01T09:31:44;28.63;;;12.90;;
68923;SDS011;55961;52.156;20.942;2023-03-01T09:34:09;25.17;;;10.27;;
68923;SDS011;55961;52.156;20.942;2023-03-01T09:36:36;22.73;;;9.40;;
68923;SDS011;55961;52.156;20.942;2023-03-01T09:39:02;20.65;;;9.70;;
68923;SDS011;55961;52.156;20.942;2023-03-01T09:41:35;23.13;;;9.90;;
68923;SDS011;55961;52.156;20.942;2023-03-01T09:46:49;26.63;;;12.75;;
68923;SDS011;55961;52.156;20.942;2023-03-01T09:49:20;30.15;;;13.43;;
68923;SDS011;55961;52.156;20.942;2023-03-01T09:51:59;28.33;;;12.48;;
68923;SDS011;55961;52.156;20.942;2023-03-01T09:54:31;22.00;;;10.43;;
68923;SDS011;55961;52.156;20.942;2023-03-01T10:00:43;19.88;;;9.15;;
68923;SDS011;55961;52.156;20.942;2023-03-01T10:02:51;24.92;;;10.70;;
68923;SDS011;55961;52.156;20.942;2023-03-01T10:05:46;25.35;;;11.82;;
68923;SDS011;55961;52.156;20.942;2023-03-01T10:08:38;22.77;;;10.43;;
68923;SDS011;55961;52.156;20.942;2023-03-01T10:11:26;26.75;;;12.38;;
68923;SDS011;55961;52.156;20.942;2023-03-01T10:16:40;25.35;;;11.65;;
68923;SDS011;55961;52.156;20.942;2023-03-01T10:19:28;26.92;;;11.40;;
68923;SDS011;55961;52.156;20.942;2023-03-01T10:22:00;25.77;;;13.57;;
68923;SDS011;55961;52.156;20.942;2023-03-01T10:24:34;29.92;;;12.18;;
68923;SDS011;55961;52.156;20.942;2023-03-01T10:27:01;21.38;;;8.70;;
68923;SDS011;55961;52.156;20.942;2023-03-01T10:29:39;26.75;;;11.70;;
68923;SDS011;55961;52.156;20.942;2023-03-01T10:32:26;24.90;;;11.45;;
68923;SDS011;55961;52.156;20.942;2023-03-01T10:34:52;29.03;;;11.87;;
68923;SDS011;55961;52.156;20.942;2023-03-01T10:37:19;24.35;;;11.85;;
68923;SDS011;55961;52.156;20.942;2023-03-01T10:40:10;32.35;;;13.85;;
68923;SDS011;55961;52.156;20.942;2023-03-01T10:42:57;27.80;;;12.73;;
68923;SDS011;55961;52.156;20.942;2023-03-01T10:45:33;24.90;;;12.40;;
68923;SDS011;55961;52.156;20.942;2023-03-01T10:48:22;29.45;;;12.45;;
68923;SDS011;55961;52.156;20.942;2023-03-01T10:51:16;25.00;;;11.20;;
68923;SDS011;55961;52.156;20.942;2023-03-01T10:53:42;23.27;;;11.98;;
68923;SDS011;55961;52.156;20.942;2023-03-01T10:56:14;26.03;;;11.57;;
68923;SDS011;55961;52.156;20.942;2023-03-01T10:58:58;27.60;;;11.57;;
68923;SDS011;55961;52.156;20.942;2023-03-01T11:01:27;24.05;;;10.65;;
68923;SDS011;55961;52.156;20.942;2023-03-01T11:06:32;24.92;;;11.30;;
68923;SDS011;55961;52.156;20.942;2023-03-01T11:09:13;22.50;;;11.07;;
68923;SDS011;55961;52.156;20.942;2023-03-01T11:11:51;29.00;;;13.13;;
68923;SDS011;55961;52.156;20.942;2023-03-01T11:14:22;22.67;;;10.68;;
68923;SDS011;55961;52.156;20.942;2023-03-01T11:17:03;23.58;;;9.80;;
68923;SDS011;55961;52.156;20.942;2023-03-01T11:19:31;23.13;;;10.55;;
68923;SDS011;55961;52.156;20.942;2023-03-01T11:24:46;23.35;;;11.57;;
68923;SDS011;55961;52.156;20.942;2023-03-01T11:27:25;25.55;;;12.13;;
68923;SDS011;55961;52.156;20.942;2023-03-01T11:30:02;23.38;;;10.98;;
68923;SDS011;55961;52.156;20.942;2023-03-01T11:33:01;19.88;;;10.13;;
68923;SDS011;55961;52.156;20.942;2023-03-01T11:35:37;24.80;;;10.13;;
68923;SDS011;55961;52.156;20.942;2023-03-01T11:38:25;19.65;;;9.57;;
68923;SDS011;55961;52.156;20.942;2023-03-01T11:40:54;22.02;;;10.10;;
68923;SDS011;55961;52.156;20.942;2023-03-01T11:56:42;20.23;;;10.55;;
68923;SDS011;55961;52.156;20.942;2023-03-01T12:07:32;18.92;;;9.13;;
68923;SDS011;55961;52.156;20.942;2023-03-01T12:15:22;20.88;;;10.40;;
68923;SDS011;55961;52.156;20.942;2023-03-01T12:23:43;20.33;;;10.38;;
68923;SDS011;55961;52.156;20.942;2023-03-01T12:28:54;22.17;;;11.05;;
68923;SDS011;55961;52.156;20.942;2023-03-01T12:34:14;23.08;;;10.48;;
68923;SDS011;55961;52.156;20.942;2023-03-01T12:37:13;17.10;;;8.30;;
68923;SDS011;55961;52.156;20.942;2023-03-01T12:46:09;23.08;;;10.68;;
68923;SDS011;55961;52.156;20.942;2023-03-01T12:48:59;18.63;;;9.07;;
68923;SDS011;55961;52.156;20.942;2023-03-01T12:51:28;22.48;;;10.73;;
68923;SDS011;55961;52.156;20.942;2023-03-01T12:53:57;20.27;;;10.20;;
68923;SDS011;55961;52.156;20.942;2023-03-01T12:56:27;19.42;;;10.13;;
68923;SDS011;55961;52.156;20.942;2023-03-01T12:58:57;18.52;;;9.02;;
68923;SDS011;55961;52.156;20.942;2023-03-01T13:07:29;15.03;;;8.53;;
68923;SDS011;55961;52.156;20.942;2023-03-01T13:17:48;21.90;;;9.32;;
68923;SDS011;55961;52.156;20.942;2023-03-01T13:20:17;23.20;;;9.67;;
68923;SDS011;55961;52.156;20.942;2023-03-01T13:22:45;18.38;;;9.70;;
68923;SDS011;55961;52.156;20.942;2023-03-01T13:25:16;21.75;;;10.82;;
68923;SDS011;55961;52.156;20.942;2023-03-01T13:27:45;20.13;;;10.48;;
68923;SDS011;55961;52.156;20.942;2023-03-01T13:33:33;22.47;;;10.63;;
68923;SDS011;55961;52.156;20.942;2023-03-01T13:35:51;21.50;;;11.15;;
68923;SDS011;55961;52.156;20.942;2023-03-01T13:41:14;24.38;;;11.63;;
68923;SDS011;55961;52.156;20.942;2023-03-01T13:43:42;19.95;;;11.00;;
68923;SDS011;55961;52.156;20.942;2023-03-01T13:46:18;19.10;;;10.43;;
68923;SDS011;55961;52.156;20.942;2023-03-01T13:48:47;21.73;;;10.88;;
68923;SDS011;55961;52.156;20.942;2023-03-01T13:51:20;19.75;;;10.68;;
68923;SDS011;55961;52.156;20.942;2023-03-01T13:53:50;22.92;;;11.30;;
68923;SDS011;55961;52.156;20.942;2023-03-01T13:56:27;22.60;;;10.40;;
68923;SDS011;55961;52.156;20.942;2023-03-01T13:58:59;21.20;;;10.97;;
68923;SDS011;55961;52.156;20.942;2023-03-01T14:01:31;20.17;;;10.48;;
68923;SDS011;55961;52.156;20.942;2023-03-01T14:03:59;18.45;;;9.27;;
68923;SDS011;55961;52.156;20.942;2023-03-01T14:06:27;20.20;;;10.30;;
68923;SDS011;55961;52.156;20.942;2023-03-01T14:09:20;21.63;;;11.10;;
68923;SDS011;55961;52.156;20.942;2023-03-01T14:14:45;24.17;;;11.52;;
68923;SDS011;55961;52.156;20.942;2023-03-01T14:17:28;20.40;;;11.23;;
68923;SDS011;55961;52.156;20.942;2023-03-01T14:20:11;25.60;;;11.13;;
68923;SDS011;55961;52.156;20.942;2023-03-01T14:22:50;28.45;;;12.52;;
68923;SDS011;55961;52.156;20.942;2023-03-01T14:25:27;21.97;;;11.17;;
68923;SDS011;55961;52.156;20.942;2023-03-01T14:27:59;24.13;;;11.65;;
68923;SDS011;55961;52.156;20.942;2023-03-01T14:30:46;21.05;;;10.80;;
68923;SDS011;55961;52.156;20.942;2023-03-01T14:33:19;23.17;;;10.80;;
68923;SDS011;55961;52.156;20.942;2023-03-01T14:36:01;24.05;;;11.63;;
68923;SDS011;55961;52.156;20.942;2023-03-01T14:38:43;21.60;;;10.07;;
68923;SDS011;55961;52.156;20.942;2023-03-01T14:41:11;21.67;;;11.15;;
68923;SDS011;55961;52.156;20.942;2023-03-01T14:43:47;22.90;;;10.55;;
68923;SDS011;55961;52.156;20.942;2023-03-01T14:46:24;28.58;;;12.57;;
68923;SDS011;55961;52.156;20.942;2023-03-01T14:48:57;30.55;;;14.20;;
68923;SDS011;55961;52.156;20.942;2023-03-01T14:51:27;30.60;;;15.83;;
68923;SDS011;55961;52.156;20.942;2023-03-01T14:53:53;29.50;;;13.43;;
68923;SDS011;55961;52.156;20.942;2023-03-01T14:56:19;31.30;;;14.27;;
68923;SDS011;55961;52.156;20.942;2023-03-01T14:58:45;36.00;;;15.88;;
68923;SDS011;55961;52.156;20.942;2023-03-01T15:01:16;33.17;;;11.80;;
68923;SDS011;55961;52.156;20.942;2023-03-01T15:03:44;46.00;;;17.98;;
68923;SDS011;55961;52.156;20.942;2023-03-01T15:06:16;54.75;;;20.00;;
68923;SDS011;55961;52.156;20.942;2023-03-01T15:08:46;68.32;;;22.60;;
68923;SDS011;55961;52.156;20.942;2023-03-01T15:13:50;70.80;;;21.47;;
68923;SDS011;55961;52.156;20.942;2023-03-01T15:16:21;39.45;;;14.50;;
68923;SDS011;55961;52.156;20.942;2023-03-01T15:18:51;46.83;;;15.68;;
68923;SDS011;55961;52.156;20.942;2023-03-01T15:21:25;65.55;;;19.10;;
68923;SDS011;55961;52.156;20.942;2023-03-01T15:28:51;77.40;;;25.27;;
68923;SDS011;55961;52.156;20.942;2023-03-01T15:31:32;57.83;;;20.90;;
68923;SDS011;55961;52.156;20.942;2023-03-01T15:34:08;55.97;;;22.13;;
68923;SDS011;55961;52.156;20.942;2023-03-01T15:36:40;46.60;;;19.10;;
68923;SDS011;55961;52.156;20.942;2023-03-01T15:45:20;34.53;;;15.05;;
68923;SDS011;55961;52.156;20.942;2023-03-01T15:47:52;28.20;;;12.73;;
68923;SDS011;55961;52.156;20.942;2023-03-01T15:52:50;34.57;;;14.20;;
68923;SDS011;55961;52.156;20.942;2023-03-01T15:55:21;36.63;;;16.05;;
68923;SDS011;55961;52.156;20.942;2023-03-01T16:00:45;47.05;;;18.27;;
68923;SDS011;55961;52.156;20.942;2023-03-01T16:03:13;35.00;;;16.23;;
68923;SDS011;55961;52.156;20.942;2023-03-01T16:05:47;35.20;;;16.93;;
68923;SDS011;55961;52.156;20.942;2023-03-01T16:08:15;32.80;;;16.10;;
68923;SDS011;55961;52.156;20.942;2023-03-01T16:10:41;33.63;;;14.50;;